sensor_id;sensor_type;location;lat;lon;timestamp;temperature;humidity
18073;DHT22;9161;47.348;9.648;2023-11-22T00:01:22;6.80;99.90
18073;DHT22;9161;47.348;9.648;2023-11-22T00:06:26;6.80;99.90
18073;DHT22;9161;47.348;9.648;2023-11-22T00:11:31;6.80;99.90
18073;DHT22;9161;47.348;9.648;2023-11-22T00:16:33;6.80;99.90
18073;DHT22;9161;47.348;9.648;2023-11-22T00:21:38;6.70;99.90
18073;DHT22;9161;47.348;9.648;2023-11-22T00:26:41;6.70;99.90
18073;DHT22;9161;47.348;9.648;2023-11-22T00:31:43;6.80;99.90
18073;DHT22;9161;47.348;9.648;2023-11-22T00:36:46;6.80;99.90
18073;DHT22;9161;47.348;9.648;2023-11-22T00:41:50;6.80;99.90
18073;DHT22;9161;47.348;9.648;2023-11-22T00:46:53;6.80;99.90
18073;DHT22;9161;47.348;9.648;2023-11-22T00:51:56;6.70;99.90
18073;DHT22;9161;47.348;9.648;2023-11-22T00:57:03;6.70;99.90
18073;DHT22;9161;47.348;9.648;2023-11-22T01:02:05;6.70;99.90
18073;DHT22;9161;47.348;9.648;2023-11-22T01:07:09;6.70;99.90
18073;DHT22;9161;47.348;9.648;2023-11-22T01:12:13;6.70;99.90
18073;DHT22;9161;47.348;9.648;2023-11-22T01:17:15;6.70;99.90
18073;DHT22;9161;47.348;9.648;2023-11-22T01:22:18;6.70;99.90
18073;DHT22;9161;47.348;9.648;2023-11-22T01:27:21;6.60;99.90
18073;DHT22;9161;47.348;9.648;2023-11-22T01:32:24;6.60;99.90
18073;DHT22;9161;47.348;9.648;2023-11-22T01:37:26;6.60;99.90
18073;DHT22;9161;47.348;9.648;2023-11-22T01:42:30;6.60;99.90
18073;DHT22;9161;47.348;9.648;2023-11-22T01:47:32;6.60;99.90
18073;DHT22;9161;47.348;9.648;2023-11-22T01:52:35;6.50;99.90
18073;DHT22;9161;47.348;9.648;2023-11-22T01:57:38;6.50;99.90
18073;DHT22;9161;47.348;9.648;2023-11-22T02:02:41;6.50;99.90
18073;DHT22;9161;47.348;9.648;2023-11-22T02:07:44;6.50;99.90
18073;DHT22;9161;47.348;9.648;2023-11-22T02:12:48;6.50;99.90
18073;DHT22;9161;47.348;9.648;2023-11-22T02:17:50;6.50;99.90
18073;DHT22;9161;47.348;9.648;2023-11-22T02:23:08;6.50;99.90
18073;DHT22;9161;47.348;9.648;2023-11-22T02:28:11;6.50;99.90
18073;DHT22;9161;47.348;9.648;2023-11-22T02:33:13;6.40;99.90
18073;DHT22;9161;47.348;9.648;2023-11-22T02:38:17;6.40;99.90
18073;DHT22;9161;47.348;9.648;2023-11-22T02:43:20;6.50;99.90
18073;DHT22;9161;47.348;9.648;2023-11-22T02:48:24;6.50;99.90
18073;DHT22;9161;47.348;9.648;2023-11-22T02:53:27;6.50;99.90
18073;DHT22;9161;47.348;9.648;2023-11-22T02:58:30;6.40;99.90
18073;DHT22;9161;47.348;9.648;2023-11-22T03:03:32;6.40;99.90
18073;DHT22;9161;47.348;9.648;2023-11-22T03:08:36;6.40;99.90
18073;DHT22;9161;47.348;9.648;2023-11-22T03:13:38;6.40;99.90
18073;DHT22;9161;47.348;9.648;2023-11-22T03:18:40;6.50;99.90
18073;DHT22;9161;47.348;9.648;2023-11-22T03:23:44;6.50;99.90
18073;DHT22;9161;47.348;9.648;2023-11-22T03:28:47;6.50;99.90
18073;DHT22;9161;47.348;9.648;2023-11-22T03:33:49;6.50;99.90
18073;DHT22;9161;47.348;9.648;2023-11-22T03:38:52;6.50;99.90
18073;DHT22;9161;47.348;9.648;2023-11-22T03:43:54;6.60;99.90
18073;DHT22;9161;47.348;9.648;2023-11-22T03:48:56;6.60;99.90
18073;DHT22;9161;47.348;9.648;2023-11-22T03:54:00;6.60;99.90
18073;DHT22;9161;47.348;9.648;2023-11-22T03:59:03;6.60;99.90
18073;DHT22;9161;47.348;9.648;2023-11-22T04:04:05;6.50;99.90
18073;DHT22;9161;47.348;9.648;2023-11-22T04:09:08;6.50;99.90
18073;DHT22;9161;47.348;9.648;2023-11-22T04:14:13;6.50;99.90
18073;DHT22;9161;47.348;9.648;2023-11-22T04:19:15;6.50;99.90
18073;DHT22;9161;47.348;9.648;2023-11-22T04:24:19;6.50;99.90
18073;DHT22;9161;47.348;9.648;2023-11-22T04:29:21;6.40;99.90
18073;DHT22;9161;47.348;9.648;2023-11-22T04:34:23;6.40;99.90
18073;DHT22;9161;47.348;9.648;2023-11-22T04:39:26;6.40;99.90
18073;DHT22;9161;47.348;9.648;2023-11-22T04:44:29;6.50;99.90
18073;DHT22;9161;47.348;9.648;2023-11-22T04:49:31;6.50;99.90
18073;DHT22;9161;47.348;9.648;2023-11-22T04:54:34;6.40;99.90
18073;DHT22;9161;47.348;9.648;2023-11-22T04:59:36;6.40;99.90
18073;DHT22;9161;47.348;9.648;2023-11-22T05:04:39;6.40;99.90
18073;DHT22;9161;47.348;9.648;2023-11-22T05:09:43;6.40;99.90
18073;DHT22;9161;47.348;9.648;2023-11-22T05:14:45;6.40;99.90
18073;DHT22;9161;47.348;9.648;2023-11-22T05:19:52;6.40;99.90
18073;DHT22;9161;47.348;9.648;2023-11-22T05:24:55;6.40;99.90
18073;DHT22;9161;47.348;9.648;2023-11-22T05:29:57;6.40;99.90
18073;DHT22;9161;47.348;9.648;2023-11-22T05:34:59;6.40;99.90
18073;DHT22;9161;47.348;9.648;2023-11-22T05:40:04;6.40;99.90
18073;DHT22;9161;47.348;9.648;2023-11-22T05:45:07;6.40;99.90
18073;DHT22;9161;47.348;9.648;2023-11-22T05:50:09;6.40;99.90
18073;DHT22;9161;47.348;9.648;2023-11-22T05:55:14;6.40;99.90
18073;DHT22;9161;47.348;9.648;2023-11-22T06:00:17;6.40;99.90
18073;DHT22;9161;47.348;9.648;2023-11-22T06:05:21;6.40;99.90
18073;DHT22;9161;47.348;9.648;2023-11-22T06:10:25;6.40;99.90
18073;DHT22;9161;47.348;9.648;2023-11-22T06:15:28;6.40;99.90
18073;DHT22;9161;47.348;9.648;2023-11-22T06:20:32;6.50;99.90
18073;DHT22;9161;47.348;9.648;2023-11-22T06:25:36;6.40;99.90
18073;DHT22;9161;47.348;9.648;2023-11-22T06:30:38;6.40;99.90
18073;DHT22;9161;47.348;9.648;2023-11-22T06:35:40;6.30;99.90
18073;DHT22;9161;47.348;9.648;2023-11-22T06:40:45;6.40;99.90
18073;DHT22;9161;47.348;9.648;2023-11-22T06:45:47;6.40;99.90
18073;DHT22;9161;47.348;9.648;2023-11-22T06:50:48;6.40;99.90
18073;DHT22;9161;47.348;9.648;2023-11-22T06:55:52;6.50;99.90
18073;DHT22;9161;47.348;9.648;2023-11-22T07:00:54;6.50;99.90
18073;DHT22;9161;47.348;9.648;2023-11-22T07:05:57;6.50;99.90
18073;DHT22;9161;47.348;9.648;2023-11-22T07:11:01;6.50;99.90
18073;DHT22;9161;47.348;9.648;2023-11-22T07:16:05;6.40;99.90
18073;DHT22;9161;47.348;9.648;2023-11-22T07:21:08;6.30;99.90
18073;DHT22;9161;47.348;9.648;2023-11-22T07:26:11;6.20;99.90
18073;DHT22;9161;47.348;9.648;2023-11-22T07:31:15;6.00;99.90
18073;DHT22;9161;47.348;9.648;2023-11-22T07:36:20;6.00;99.90
18073;DHT22;9161;47.348;9.648;2023-11-22T07:41:23;5.90;99.90
18073;DHT22;9161;47.348;9.648;2023-11-22T07:46:26;5.80;99.90
18073;DHT22;9161;47.348;9.648;2023-11-22T07:51:28;5.60;99.90
18073;DHT22;9161;47.348;9.648;2023-11-22T07:56:33;5.50;99.90
18073;DHT22;9161;47.348;9.648;2023-11-22T08:01:35;5.50;99.90
18073;DHT22;9161;47.348;9.648;2023-11-22T08:06:37;5.50;99.90
18073;DHT22;9161;47.348;9.648;2023-11-22T08:11:41;5.50;99.90
18073;DHT22;9161;47.348;9.648;2023-11-22T08:16:43;5.40;99.90
18073;DHT22;9161;47.348;9.648;2023-11-22T08:21:46;5.40;99.90
18073;DHT22;9161;47.348;9.648;2023-11-22T08:26:50;5.30;99.90
18073;DHT22;9161;47.348;9.648;2023-11-22T08:31:52;5.30;99.90
18073;DHT22;9161;47.348;9.648;2023-11-22T08:36:55;5.30;99.90
18073;DHT22;9161;47.348;9.648;2023-11-22T08:41:59;5.40;99.90
18073;DHT22;9161;47.348;9.648;2023-11-22T08:47:02;5.60;99.90
18073;DHT22;9161;47.348;9.648;2023-11-22T08:52:05;5.60;99.90
18073;DHT22;9161;47.348;9.648;2023-11-22T08:57:09;5.60;99.90
18073;DHT22;9161;47.348;9.648;2023-11-22T09:02:11;5.60;99.90
18073;DHT22;9161;47.348;9.648;2023-11-22T09:07:15;6.40;99.90
18073;DHT22;9161;47.348;9.648;2023-11-22T09:12:19;7.20;99.90
18073;DHT22;9161;47.348;9.648;2023-11-22T09:17:22;7.10;99.90
18073;DHT22;9161;47.348;9.648;2023-11-22T09:22:24;6.50;99.90
18073;DHT22;9161;47.348;9.648;2023-11-22T09:27:29;5.90;99.90
18073;DHT22;9161;47.348;9.648;2023-11-22T09:32:31;5.80;99.90
18073;DHT22;9161;47.348;9.648;2023-11-22T09:37:33;5.70;99.90
18073;DHT22;9161;47.348;9.648;2023-11-22T09:42:37;5.70;99.90
18073;DHT22;9161;47.348;9.648;2023-11-22T09:47:40;5.70;99.90
18073;DHT22;9161;47.348;9.648;2023-11-22T09:52:43;5.80;99.90
18073;DHT22;9161;47.348;9.648;2023-11-22T09:57:51;5.80;99.90
18073;DHT22;9161;47.348;9.648;2023-11-22T10:02:55;5.80;99.90
18073;DHT22;9161;47.348;9.648;2023-11-22T10:07:57;5.70;99.90
18073;DHT22;9161;47.348;9.648;2023-11-22T10:13:01;5.50;99.90
18073;DHT22;9161;47.348;9.648;2023-11-22T10:18:04;5.40;99.90
18073;DHT22;9161;47.348;9.648;2023-11-22T10:23:08;5.40;99.90
18073;DHT22;9161;47.348;9.648;2023-11-22T10:28:13;5.50;99.90
18073;DHT22;9161;47.348;9.648;2023-11-22T10:33:15;5.40;99.90
18073;DHT22;9161;47.348;9.648;2023-11-22T10:38:18;5.30;99.90
18073;DHT22;9161;47.348;9.648;2023-11-22T10:43:22;5.30;99.90
18073;DHT22;9161;47.348;9.648;2023-11-22T10:48:27;5.30;99.90
18073;DHT22;9161;47.348;9.648;2023-11-22T10:53:32;5.40;99.90
18073;DHT22;9161;47.348;9.648;2023-11-22T10:58:42;5.40;99.90
18073;DHT22;9161;47.348;9.648;2023-11-22T11:03:55;5.30;99.90
18073;DHT22;9161;47.348;9.648;2023-11-22T11:09:00;5.50;99.90
18073;DHT22;9161;47.348;9.648;2023-11-22T11:14:08;6.10;99.90
18073;DHT22;9161;47.348;9.648;2023-11-22T11:19:23;7.50;99.90
18073;DHT22;9161;47.348;9.648;2023-11-22T11:24:26;7.80;99.90
18073;DHT22;9161;47.348;9.648;2023-11-22T11:30:11;7.40;99.90
18073;DHT22;9161;47.348;9.648;2023-11-22T11:35:38;6.50;99.90
18073;DHT22;9161;47.348;9.648;2023-11-22T11:40:41;6.00;99.90
18073;DHT22;9161;47.348;9.648;2023-11-22T11:45:45;5.80;99.90
18073;DHT22;9161;47.348;9.648;2023-11-22T11:50:47;5.70;99.90
18073;DHT22;9161;47.348;9.648;2023-11-22T11:55:49;5.70;99.90
18073;DHT22;9161;47.348;9.648;2023-11-22T12:00:56;5.80;99.90
18073;DHT22;9161;47.348;9.648;2023-11-22T12:05:58;5.80;99.90
18073;DHT22;9161;47.348;9.648;2023-11-22T12:11:01;5.90;99.90
18073;DHT22;9161;47.348;9.648;2023-11-22T12:16:06;5.80;99.90
18073;DHT22;9161;47.348;9.648;2023-11-22T12:21:11;5.90;99.90
18073;DHT22;9161;47.348;9.648;2023-11-22T12:26:16;5.80;99.90
18073;DHT22;9161;47.348;9.648;2023-11-22T12:31:20;5.80;99.90
18073;DHT22;9161;47.348;9.648;2023-11-22T12:36:23;5.70;99.90
18073;DHT22;9161;47.348;9.648;2023-11-22T12:41:26;5.70;99.90
18073;DHT22;9161;47.348;9.648;2023-11-22T12:51:38;5.70;99.90
18073;DHT22;9161;47.348;9.648;2023-11-22T12:56:42;5.70;99.90
18073;DHT22;9161;47.348;9.648;2023-11-22T13:01:44;5.60;99.90
18073;DHT22;9161;47.348;9.648;2023-11-22T13:06:49;5.70;99.90
18073;DHT22;9161;47.348;9.648;2023-11-22T13:11:52;5.70;99.90
18073;DHT22;9161;47.348;9.648;2023-11-22T13:16:55;5.60;99.90
18073;DHT22;9161;47.348;9.648;2023-11-22T13:21:58;5.70;99.90
18073;DHT22;9161;47.348;9.648;2023-11-22T13:27:00;5.60;99.90
18073;DHT22;9161;47.348;9.648;2023-11-22T13:32:03;5.60;99.90
18073;DHT22;9161;47.348;9.648;2023-11-22T13:37:10;5.80;99.90
18073;DHT22;9161;47.348;9.648;2023-11-22T13:42:13;6.50;99.90
18073;DHT22;9161;47.348;9.648;2023-11-22T13:47:15;6.00;99.90
18073;DHT22;9161;47.348;9.648;2023-11-22T13:52:19;5.60;99.90
18073;DHT22;9161;47.348;9.648;2023-11-22T13:57:21;5.30;99.90
18073;DHT22;9161;47.348;9.648;2023-11-22T14:02:23;5.30;99.90
18073;DHT22;9161;47.348;9.648;2023-11-22T14:07:28;5.30;99.90
18073;DHT22;9161;47.348;9.648;2023-11-22T14:12:36;5.20;99.90
18073;DHT22;9161;47.348;9.648;2023-11-22T14:17:50;5.10;99.90
18073;DHT22;9161;47.348;9.648;2023-11-22T14:22:58;5.00;99.90
18073;DHT22;9161;47.348;9.648;2023-11-22T14:28:03;5.00;99.90
18073;DHT22;9161;47.348;9.648;2023-11-22T14:33:10;5.00;99.90
18073;DHT22;9161;47.348;9.648;2023-11-22T14:38:26;5.00;99.90
18073;DHT22;9161;47.348;9.648;2023-11-22T14:43:34;4.90;99.90
18073;DHT22;9161;47.348;9.648;2023-11-22T14:48:55;4.90;99.90
18073;DHT22;9161;47.348;9.648;2023-11-22T14:54:00;4.80;99.90
18073;DHT22;9161;47.348;9.648;2023-11-22T14:59:03;4.80;99.90
18073;DHT22;9161;47.348;9.648;2023-11-22T15:04:06;4.80;99.90
18073;DHT22;9161;47.348;9.648;2023-11-22T15:09:12;4.70;99.90
18073;DHT22;9161;47.348;9.648;2023-11-22T15:14:15;4.70;99.90
18073;DHT22;9161;47.348;9.648;2023-11-22T15:19:17;4.70;99.90
18073;DHT22;9161;47.348;9.648;2023-11-22T15:24:23;4.60;99.90
18073;DHT22;9161;47.348;9.648;2023-11-22T15:29:27;4.60;99.90
18073;DHT22;9161;47.348;9.648;2023-11-22T15:34:29;4.50;99.90
18073;DHT22;9161;47.348;9.648;2023-11-22T15:39:32;4.50;99.90
18073;DHT22;9161;47.348;9.648;2023-11-22T15:44:35;4.50;99.90
18073;DHT22;9161;47.348;9.648;2023-11-22T15:49:37;4.50;99.90
18073;DHT22;9161;47.348;9.648;2023-11-22T15:54:40;4.40;99.90
18073;DHT22;9161;47.348;9.648;2023-11-22T15:59:43;4.40;99.90
18073;DHT22;9161;47.348;9.648;2023-11-22T16:04:45;4.50;99.90
18073;DHT22;9161;47.348;9.648;2023-11-22T16:09:49;4.50;99.90
18073;DHT22;9161;47.348;9.648;2023-11-22T16:14:52;4.40;99.90
18073;DHT22;9161;47.348;9.648;2023-11-22T16:19:54;4.20;99.90
18073;DHT22;9161;47.348;9.648;2023-11-22T16:25:03;4.20;99.90
18073;DHT22;9161;47.348;9.648;2023-11-22T16:30:07;4.20;99.90
18073;DHT22;9161;47.348;9.648;2023-11-22T16:35:10;4.10;99.90
18073;DHT22;9161;47.348;9.648;2023-11-22T16:40:17;4.10;99.90
18073;DHT22;9161;47.348;9.648;2023-11-22T16:45:20;4.00;99.90
18073;DHT22;9161;47.348;9.648;2023-11-22T16:50:36;4.10;99.90
18073;DHT22;9161;47.348;9.648;2023-11-22T16:55:43;4.10;99.90
18073;DHT22;9161;47.348;9.648;2023-11-22T17:00:51;4.00;99.90
18073;DHT22;9161;47.348;9.648;2023-11-22T17:05:52;4.00;99.90
18073;DHT22;9161;47.348;9.648;2023-11-22T17:10:56;4.00;99.90
18073;DHT22;9161;47.348;9.648;2023-11-22T17:15:59;4.00;99.90
18073;DHT22;9161;47.348;9.648;2023-11-22T17:21:02;4.00;99.90
18073;DHT22;9161;47.348;9.648;2023-11-22T17:26:06;4.00;99.90
18073;DHT22;9161;47.348;9.648;2023-11-22T17:31:08;4.00;99.90
18073;DHT22;9161;47.348;9.648;2023-11-22T17:36:11;4.00;99.90
18073;DHT22;9161;47.348;9.648;2023-11-22T17:41:16;4.00;99.90
18073;DHT22;9161;47.348;9.648;2023-11-22T17:46:18;4.00;99.90
18073;DHT22;9161;47.348;9.648;2023-11-22T17:51:21;3.90;99.90
18073;DHT22;9161;47.348;9.648;2023-11-22T17:56:25;4.00;99.90
18073;DHT22;9161;47.348;9.648;2023-11-22T18:01:28;3.90;99.90
18073;DHT22;9161;47.348;9.648;2023-11-22T18:06:30;3.90;99.90
18073;DHT22;9161;47.348;9.648;2023-11-22T18:11:34;3.90;99.90
18073;DHT22;9161;47.348;9.648;2023-11-22T18:16:37;3.80;99.90
18073;DHT22;9161;47.348;9.648;2023-11-22T18:21:42;3.90;99.90
18073;DHT22;9161;47.348;9.648;2023-11-22T18:26:46;3.90;99.90
18073;DHT22;9161;47.348;9.648;2023-11-22T18:31:50;3.90;99.90
18073;DHT22;9161;47.348;9.648;2023-11-22T18:36:52;3.90;99.90
18073;DHT22;9161;47.348;9.648;2023-11-22T18:41:56;3.90;99.90
18073;DHT22;9161;47.348;9.648;2023-11-22T18:46:58;3.90;99.90
18073;DHT22;9161;47.348;9.648;2023-11-22T18:52:01;3.80;99.90
18073;DHT22;9161;47.348;9.648;2023-11-22T18:57:05;3.80;99.90
18073;DHT22;9161;47.348;9.648;2023-11-22T19:02:10;3.90;99.90
18073;DHT22;9161;47.348;9.648;2023-11-22T19:07:14;3.90;99.90
18073;DHT22;9161;47.348;9.648;2023-11-22T19:12:23;3.90;99.90
18073;DHT22;9161;47.348;9.648;2023-11-22T19:17:28;4.00;99.90
18073;DHT22;9161;47.348;9.648;2023-11-22T19:22:44;3.90;99.90
18073;DHT22;9161;47.348;9.648;2023-11-22T19:28:11;3.90;99.90
18073;DHT22;9161;47.348;9.648;2023-11-22T19:33:15;3.90;99.90
18073;DHT22;9161;47.348;9.648;2023-11-22T19:38:19;3.90;99.90
18073;DHT22;9161;47.348;9.648;2023-11-22T19:43:23;3.90;99.90
18073;DHT22;9161;47.348;9.648;2023-11-22T19:48:27;3.90;99.90
18073;DHT22;9161;47.348;9.648;2023-11-22T19:53:32;3.90;99.90
18073;DHT22;9161;47.348;9.648;2023-11-22T19:58:42;3.90;99.90
18073;DHT22;9161;47.348;9.648;2023-11-22T20:09:48;3.90;99.90
18073;DHT22;9161;47.348;9.648;2023-11-22T20:15:00;4.00;99.90
18073;DHT22;9161;47.348;9.648;2023-11-22T20:20:11;4.00;99.90
18073;DHT22;9161;47.348;9.648;2023-11-22T20:25:21;3.90;99.90
18073;DHT22;9161;47.348;9.648;2023-11-22T20:30:26;3.90;99.90
18073;DHT22;9161;47.348;9.648;2023-11-22T20:35:39;3.90;99.90
18073;DHT22;9161;47.348;9.648;2023-11-22T20:40:52;3.90;99.90
18073;DHT22;9161;47.348;9.648;2023-11-22T20:46:24;3.90;99.90
18073;DHT22;9161;47.348;9.648;2023-11-22T20:58:30;3.90;99.90
18073;DHT22;9161;47.348;9.648;2023-11-22T21:04:17;3.90;99.90
18073;DHT22;9161;47.348;9.648;2023-11-22T21:10:10;3.90;99.90
18073;DHT22;9161;47.348;9.648;2023-11-22T21:15:38;3.90;99.90
18073;DHT22;9161;47.348;9.648;2023-11-22T21:20:43;3.80;99.90
18073;DHT22;9161;47.348;9.648;2023-11-22T21:25:46;3.70;99.90
18073;DHT22;9161;47.348;9.648;2023-11-22T21:30:51;3.60;99.90
18073;DHT22;9161;47.348;9.648;2023-11-22T21:35:55;3.70;99.90
18073;DHT22;9161;47.348;9.648;2023-11-22T21:41:01;3.70;99.90
18073;DHT22;9161;47.348;9.648;2023-11-22T21:46:14;3.80;99.90
18073;DHT22;9161;47.348;9.648;2023-11-22T21:51:28;3.80;99.90
18073;DHT22;9161;47.348;9.648;2023-11-22T21:56:30;3.80;99.90
18073;DHT22;9161;47.348;9.648;2023-11-22T22:01:34;3.70;99.90
18073;DHT22;9161;47.348;9.648;2023-11-22T22:06:38;3.60;99.90
18073;DHT22;9161;47.348;9.648;2023-11-22T22:11:41;3.60;99.90
18073;DHT22;9161;47.348;9.648;2023-11-22T22:16:43;3.70;99.90
18073;DHT22;9161;47.348;9.648;2023-11-22T22:21:49;3.70;99.90
18073;DHT22;9161;47.348;9.648;2023-11-22T22:26:51;3.70;99.90
18073;DHT22;9161;47.348;9.648;2023-11-22T22:31:53;3.70;99.90
18073;DHT22;9161;47.348;9.648;2023-11-22T22:36:57;3.70;99.90
18073;DHT22;9161;47.348;9.648;2023-11-22T22:41:59;3.80;99.90
18073;DHT22;9161;47.348;9.648;2023-11-22T22:47:02;3.90;99.90
18073;DHT22;9161;47.348;9.648;2023-11-22T22:52:06;4.00;99.90
18073;DHT22;9161;47.348;9.648;2023-11-22T22:57:12;4.00;99.90
18073;DHT22;9161;47.348;9.648;2023-11-22T23:02:15;4.00;99.90
18073;DHT22;9161;47.348;9.648;2023-11-22T23:07:19;4.10;99.90
18073;DHT22;9161;47.348;9.648;2023-11-22T23:12:23;4.00;99.90
18073;DHT22;9161;47.348;9.648;2023-11-22T23:17:25;4.00;99.90
18073;DHT22;9161;47.348;9.648;2023-11-22T23:22:29;4.00;99.90
18073;DHT22;9161;47.348;9.648;2023-11-22T23:27:31;4.00;99.90
18073;DHT22;9161;47.348;9.648;2023-11-22T23:32:33;3.90;99.90
18073;DHT22;9161;47.348;9.648;2023-11-22T23:37:37;3.90;99.90
18073;DHT22;9161;47.348;9.648;2023-11-22T23:42:39;3.90;99.90
18073;DHT22;9161;47.348;9.648;2023-11-22T23:47:41;3.90;99.90
18073;DHT22;9161;47.348;9.648;2023-11-22T23:52:45;3.90;99.90
18073;DHT22;9161;47.348;9.648;2023-11-22T23:57:48;3.90;99.90
